createdAt,value
2019-06-10T00:02:15.991Z,3.87
2019-06-10T00:04:45.817Z,5.83
2019-06-10T00:07:15.882Z,4.53
2019-06-10T00:09:45.687Z,6.03
2019-06-10T00:12:15.572Z,7.37
2019-06-10T00:14:45.457Z,7.23
2019-06-10T00:17:15.453Z,4.87
2019-06-10T00:19:45.173Z,4.03
2019-06-10T00:22:14.904Z,3.70
2019-06-10T00:24:44.674Z,9.73
2019-06-10T00:27:14.472Z,3.17
2019-06-10T00:29:44.179Z,2.50
2019-06-10T00:32:13.963Z,8.43
2019-06-10T00:34:43.898Z,3.73
2019-06-10T00:37:15.113Z,4.30
2019-06-10T00:39:45.005Z,4.37
2019-06-10T00:42:15.440Z,4.33
2019-06-10T00:44:45.380Z,5.00
2019-06-10T00:47:15.627Z,4.37
2019-06-10T00:49:46.336Z,4.13
2019-06-10T00:52:16.109Z,3.57
2019-06-10T00:54:46.047Z,3.77
2019-06-10T00:57:15.845Z,4.20
2019-06-10T00:59:45.575Z,3.80
2019-06-10T01:02:15.336Z,6.63
2019-06-10T01:04:45.653Z,13.53
2019-06-10T01:07:15.576Z,5.93
2019-06-10T01:09:45.390Z,4.47
2019-06-10T01:12:15.376Z,6.10
2019-06-10T01:14:45.199Z,7.63
2019-06-10T01:17:15.418Z,2.37
2019-06-10T01:19:45.636Z,4.80
2019-06-10T01:22:15.972Z,4.37
2019-06-10T01:24:47.057Z,1.80
2019-06-10T01:27:18.075Z,5.80
2019-06-10T01:29:51.108Z,3.83
2019-06-10T01:32:21.647Z,5.40
2019-06-10T01:34:51.663Z,6.53
2019-06-10T01:37:22.033Z,9.73
2019-06-10T01:39:51.886Z,2.73
2019-06-10T01:42:21.758Z,5.50
2019-06-10T01:44:51.451Z,6.90
2019-06-10T01:47:21.664Z,3.93
2019-06-10T01:49:51.827Z,4.70
2019-06-10T01:52:22.544Z,5.43
2019-06-10T01:54:52.270Z,2.63
2019-06-10T01:57:22.194Z,11.97
2019-06-10T01:59:52.126Z,3.37
2019-06-10T02:02:24.372Z,2.77
2019-06-10T02:04:54.237Z,3.27
2019-06-10T02:07:24.366Z,4.13
2019-06-10T02:09:54.245Z,4.20
2019-06-10T02:12:24.450Z,2.00
2019-06-10T02:14:54.700Z,3.47
2019-06-10T02:17:24.471Z,6.50
2019-06-10T02:19:54.324Z,6.33
2019-06-10T02:22:24.548Z,4.27
2019-06-10T02:24:54.478Z,3.80
2019-06-10T02:27:24.347Z,5.00
2019-06-10T02:29:54.195Z,5.97
2019-06-10T02:32:31.632Z,8.57
2019-06-10T02:35:08.002Z,4.47
2019-06-10T02:37:32.346Z,5.03
2019-06-10T02:39:59.394Z,7.03
2019-06-10T02:42:35.754Z,5.00
2019-06-10T02:45:07.338Z,4.30
2019-06-10T02:47:38.269Z,6.53
2019-06-10T02:50:10.049Z,8.43
2019-06-10T02:52:44.286Z,6.07
2019-06-10T02:55:16.351Z,4.13
2019-06-10T02:57:46.041Z,4.43
2019-06-10T03:00:30.521Z,3.70
2019-06-10T03:02:48.904Z,3.53
2019-06-10T03:05:21.284Z,7.57
2019-06-10T03:07:53.109Z,7.50
2019-06-10T03:10:29.548Z,6.37
2019-06-10T03:12:53.575Z,6.83
2019-06-10T03:15:25.164Z,10.70
2019-06-10T03:17:54.842Z,5.73
2019-06-10T03:20:25.946Z,6.10
2019-06-10T03:22:55.908Z,4.93
2019-06-10T03:25:26.436Z,8.07
2019-06-10T03:27:57.157Z,10.30
2019-06-10T03:30:44.954Z,4.10
2019-06-10T03:32:58.378Z,7.97
2019-06-10T03:35:28.507Z,10.60
2019-06-10T03:37:58.418Z,11.20
2019-06-10T03:40:28.186Z,5.57
2019-06-10T03:42:57.917Z,3.97
2019-06-10T03:45:28.520Z,6.97
2019-06-10T03:47:58.481Z,14.60
2019-06-10T03:50:28.706Z,4.47
2019-06-10T03:53:01.060Z,4.73
2019-06-10T03:55:29.990Z,5.83
2019-06-10T03:58:02.082Z,5.50
2019-06-10T04:00:32.719Z,5.80
2019-06-10T04:03:02.788Z,9.03
2019-06-10T04:05:33.113Z,4.70
2019-06-10T04:08:24.806Z,5.03
2019-06-10T04:10:53.639Z,6.83
2019-06-10T04:13:25.423Z,4.10
2019-06-10T04:15:57.313Z,5.50
2019-06-10T04:18:29.329Z,13.03
2019-06-10T04:21:02.298Z,6.37
2019-06-10T04:23:33.570Z,4.67
2019-06-10T04:26:03.585Z,6.27
2019-06-10T04:28:33.848Z,5.30
2019-06-10T04:31:03.708Z,8.87
2019-06-10T04:33:33.420Z,4.00
2019-06-10T04:36:03.275Z,7.13
2019-06-10T04:38:33.073Z,5.80
2019-06-10T04:41:03.286Z,3.27
2019-06-10T04:43:33.545Z,3.50
2019-06-10T04:46:03.389Z,4.60
2019-06-10T04:48:33.198Z,4.23
2019-06-10T04:51:03.083Z,6.93
2019-06-10T04:53:33.767Z,3.63
2019-06-10T04:56:03.603Z,8.00
2019-06-10T04:58:33.714Z,4.10
2019-06-10T05:01:03.756Z,3.67
2019-06-10T05:03:33.638Z,12.33
2019-06-10T05:06:03.607Z,4.73
2019-06-10T05:08:34.011Z,4.37
2019-06-10T05:11:03.983Z,6.27
2019-06-10T05:13:33.905Z,5.47
2019-06-10T05:16:04.318Z,6.90
2019-06-10T05:18:34.192Z,5.60
2019-06-10T05:21:03.974Z,3.23
2019-06-10T05:23:33.689Z,5.63
2019-06-10T05:26:03.383Z,19.03
2019-06-10T05:28:34.230Z,3.07
2019-06-10T05:31:05.348Z,4.03
2019-06-10T05:33:35.059Z,4.03
2019-06-10T05:36:05.959Z,11.53
2019-06-10T05:38:35.977Z,4.80
2019-06-10T05:41:05.713Z,5.33
2019-06-10T05:43:36.482Z,7.23
2019-06-10T05:46:06.166Z,3.63
2019-06-10T05:48:36.027Z,3.20
2019-06-10T05:51:06.884Z,3.07
2019-06-10T05:53:36.871Z,5.77
2019-06-10T05:56:06.644Z,3.00
2019-06-10T05:58:36.356Z,3.87
2019-06-10T06:01:06.067Z,3.87
2019-06-10T06:03:37.066Z,3.67
2019-06-10T06:06:07.850Z,4.77
2019-06-10T06:08:37.687Z,5.57
2019-06-10T06:11:07.487Z,2.20
2019-06-10T06:13:38.055Z,1.80
2019-06-10T06:16:08.091Z,3.10
2019-06-10T06:18:38.365Z,4.07
2019-06-10T06:21:22.597Z,2.53
2019-06-10T06:23:43.636Z,2.17
2019-06-10T06:26:16.479Z,4.87
2019-06-10T06:28:44.427Z,9.70
2019-06-10T06:31:14.803Z,3.47
2019-06-10T06:33:44.558Z,3.43
2019-06-10T06:36:14.353Z,4.27
2019-06-10T06:38:44.047Z,4.17
2019-06-10T06:41:14.750Z,2.23
2019-06-10T06:43:45.385Z,4.30
2019-06-10T06:46:15.549Z,1.50
2019-06-10T06:48:45.599Z,1.37
2019-06-10T06:51:15.500Z,4.87
2019-06-10T06:53:51.714Z,4.77
2019-06-10T06:56:16.693Z,2.57
2019-06-10T06:58:46.553Z,5.27
2019-06-10T07:01:16.471Z,3.33
2019-06-10T07:03:46.306Z,1.40
2019-06-10T07:06:17.400Z,2.80
2019-06-10T07:09:03.761Z,5.80
2019-06-10T07:11:22.275Z,1.90
2019-06-10T07:13:53.625Z,1.90
2019-06-10T07:16:23.467Z,6.15
2019-06-10T07:18:53.937Z,3.70
2019-06-10T07:21:24.222Z,3.50
2019-06-10T07:23:54.083Z,3.30
2019-06-10T07:26:25.383Z,2.90
2019-06-10T07:28:55.269Z,3.40
2019-06-10T07:31:28.056Z,5.37
2019-06-10T07:33:56.459Z,23.70
2019-06-10T07:36:26.118Z,7.33
2019-06-10T07:38:55.951Z,4.35
2019-06-10T07:41:25.678Z,1.37
2019-06-10T07:43:56.594Z,3.67
2019-06-10T07:46:26.431Z,3.85
2019-06-10T07:48:59.147Z,2.35
2019-06-10T07:51:28.987Z,2.05
2019-06-10T07:53:59.639Z,2.35
2019-06-10T07:56:33.835Z,3.22
2019-06-10T07:59:03.593Z,2.77
2019-06-10T08:01:33.295Z,3.95
2019-06-10T08:04:03.982Z,2.37
2019-06-10T08:06:35.144Z,1.95
2019-06-10T08:09:06.366Z,1.52
2019-06-10T08:11:39.321Z,2.47
2019-06-10T08:14:10.099Z,1.30
2019-06-10T08:16:39.906Z,2.95
2019-06-10T08:19:34.931Z,3.05
2019-06-10T08:21:48.888Z,2.12
2019-06-10T08:24:16.363Z,3.80
2019-06-10T08:26:47.957Z,2.92
2019-06-10T08:29:17.844Z,4.25
2019-06-10T08:31:49.414Z,2.42
2019-06-10T08:34:19.095Z,2.35
2019-06-10T08:36:50.557Z,1.37
2019-06-10T08:39:22.504Z,1.47
2019-06-10T08:41:52.795Z,3.15
2019-06-10T08:44:23.122Z,2.00
2019-06-10T08:46:53.090Z,6.72
2019-06-10T08:49:23.853Z,5.10
2019-06-10T08:51:54.103Z,3.40
2019-06-10T08:54:24.203Z,2.40
2019-06-10T08:56:54.310Z,1.47
2019-06-10T08:59:24.275Z,3.58
2019-06-10T09:01:56.906Z,5.20
2019-06-10T09:04:25.566Z,2.87
2019-06-10T09:06:55.375Z,1.82
2019-06-10T09:09:27.234Z,4.85
2019-06-10T09:11:57.060Z,2.05
2019-06-10T09:14:27.116Z,0.87
2019-06-10T09:16:56.886Z,6.13
2019-06-10T09:19:26.810Z,2.03
2019-06-10T09:21:56.767Z,2.03
2019-06-10T09:24:38.972Z,5.07
2019-06-10T09:27:10.218Z,2.07
2019-06-10T09:29:41.712Z,1.60
2019-06-10T09:32:12.487Z,2.47
2019-06-10T09:34:47.162Z,5.20
2019-06-10T09:37:13.936Z,6.73
2019-06-10T09:39:49.825Z,2.20
2019-06-10T09:42:15.561Z,3.03
2019-06-10T09:44:48.462Z,1.73
2019-06-10T09:47:17.599Z,1.40
2019-06-10T09:49:51.428Z,1.80
2019-06-10T09:52:23.929Z,6.63
2019-06-10T09:54:56.560Z,3.90
2019-06-10T09:57:26.251Z,1.67
2019-06-10T10:00:04.017Z,6.03
2019-06-10T10:02:34.355Z,1.90
2019-06-10T10:05:05.597Z,4.65
2019-06-10T10:07:36.863Z,3.00
2019-06-10T10:10:07.801Z,3.30
2019-06-10T10:12:37.583Z,2.43
2019-06-10T10:15:22.578Z,5.35
2019-06-10T10:17:44.480Z,3.40
2019-06-10T10:20:12.987Z,3.90
2019-06-10T10:22:44.402Z,7.57
2019-06-10T10:25:14.823Z,5.30
2019-06-10T10:27:48.868Z,3.43
2019-06-10T10:30:19.615Z,4.50
2019-06-10T10:32:51.058Z,3.03
2019-06-10T10:35:21.438Z,2.60
2019-06-10T10:37:54.214Z,9.53
2019-06-10T10:40:23.407Z,2.20
2019-06-10T10:43:05.470Z,2.60
2019-06-10T10:45:25.056Z,5.17
2019-06-10T10:47:57.458Z,2.27
2019-06-10T10:50:26.303Z,3.47
2019-06-10T10:52:56.187Z,5.78
2019-06-10T10:55:25.916Z,2.15
2019-06-10T10:57:55.936Z,3.98
2019-06-10T11:00:33.743Z,1.72
2019-06-10T11:03:02.875Z,3.27
2019-06-10T11:05:34.343Z,7.22
2019-06-10T11:08:05.805Z,5.45
2019-06-10T11:10:36.291Z,3.17
2019-06-10T11:13:08.448Z,3.25
2019-06-10T11:15:38.633Z,2.58
2019-06-10T11:18:12.411Z,4.47
2019-06-10T11:20:41.386Z,7.65
2019-06-10T11:23:12.364Z,4.72
2019-06-10T11:25:43.129Z,3.58
2019-06-10T11:28:13.275Z,2.65
2019-06-10T11:30:45.267Z,5.75
2019-06-10T11:33:15.909Z,3.55
2019-06-10T11:35:46.720Z,4.17
2019-06-10T11:38:16.640Z,3.22
2019-06-10T11:40:47.156Z,2.27
2019-06-10T11:43:18.450Z,7.35
2019-06-10T11:45:53.287Z,3.52
2019-06-10T11:48:19.912Z,2.47
2019-06-10T11:50:49.723Z,4.65
2019-06-10T11:53:19.458Z,4.47
2019-06-10T11:55:51.638Z,5.50
2019-06-10T11:58:22.466Z,9.20
2019-06-10T12:00:55.851Z,6.45
2019-06-10T12:03:23.800Z,5.05
2019-06-10T12:05:56.996Z,4.90
2019-06-10T12:08:27.130Z,3.20
2019-06-10T12:11:00.493Z,4.15
2019-06-10T12:13:28.413Z,4.78
2019-06-10T12:18:29.612Z,8.38
2019-06-10T12:21:03.160Z,8.28
2019-06-10T12:23:33.626Z,6.42
2019-06-10T12:26:04.762Z,4.77
2019-06-10T12:28:34.014Z,4.80
2019-06-10T12:31:06.850Z,8.13
2019-06-10T12:33:35.278Z,7.17
2019-06-10T12:36:07.510Z,6.67
2019-06-10T12:38:43.484Z,8.15
2019-06-10T12:41:16.339Z,5.30
2019-06-10T12:43:46.504Z,8.48
2019-06-10T12:46:16.460Z,11.27
2019-06-10T12:48:46.557Z,6.42
2019-06-10T12:51:18.547Z,12.50
2019-06-10T12:53:50.204Z,7.62
2019-06-10T12:56:22.786Z,10.43
2019-06-10T12:58:54.619Z,6.53
2019-06-10T13:01:24.263Z,7.65
2019-06-10T13:03:55.565Z,5.75
2019-06-10T13:06:27.116Z,5.95
2019-06-10T13:08:58.070Z,5.75
2019-06-10T13:11:27.863Z,13.40
2019-06-10T13:13:57.864Z,8.30
2019-06-10T13:16:29.619Z,8.20
2019-06-10T13:19:00.135Z,7.33
2019-06-10T13:21:30.248Z,7.30
2019-06-10T13:24:02.537Z,7.12
2019-06-10T13:26:35.227Z,7.03
2019-06-10T13:29:08.737Z,8.25
2019-06-10T13:31:36.704Z,8.65
2019-06-10T13:34:11.111Z,7.70
2019-06-10T13:36:38.050Z,8.53
2019-06-10T13:39:10.538Z,9.05
2019-06-10T13:41:40.275Z,4.78
2019-06-10T13:44:12.537Z,9.45
2019-06-10T13:46:43.387Z,6.97
2019-06-10T13:49:15.500Z,5.90
2019-06-10T13:51:46.536Z,8.53
2019-06-10T13:54:17.202Z,10.80
2019-06-10T13:56:47.980Z,13.93
2019-06-10T13:59:17.859Z,15.50
2019-06-10T14:01:47.559Z,7.72
2019-06-10T14:04:21.800Z,17.82
2019-06-10T14:06:50.579Z,8.73
2019-06-10T14:09:22.794Z,7.92
2019-06-10T14:11:52.348Z,8.87
2019-06-10T14:14:22.983Z,10.30
2019-06-10T14:16:54.093Z,11.00
2019-06-10T14:19:24.731Z,6.70
2019-06-10T14:21:54.587Z,8.03
2019-06-10T14:24:24.664Z,10.00
2019-06-10T14:26:54.393Z,11.87
2019-06-10T14:29:24.191Z,11.53
2019-06-10T14:31:55.311Z,9.50
2019-06-10T14:34:25.207Z,9.83
2019-06-10T14:36:55.067Z,16.30
2019-06-10T14:39:24.836Z,13.53
2019-06-10T14:41:54.620Z,8.70
2019-06-10T14:44:24.597Z,8.20
2019-06-10T14:46:54.359Z,8.37
2019-06-10T14:49:24.171Z,12.87
2019-06-10T14:51:54.047Z,9.90
2019-06-10T14:54:32.320Z,9.57
2019-06-10T14:57:17.199Z,9.63
2019-06-10T14:59:46.948Z,11.67
2019-06-10T15:02:17.477Z,10.47
2019-06-10T15:04:47.340Z,9.50
2019-06-10T15:07:20.163Z,8.40
2019-06-10T15:09:58.088Z,11.77
2019-06-10T15:12:34.497Z,8.10
2019-06-10T15:18:12.219Z,9.43
2019-06-10T15:20:48.268Z,8.23
2019-06-10T15:23:19.148Z,11.53
2019-06-10T15:25:53.164Z,10.17
2019-06-10T15:28:23.522Z,11.23
2019-06-10T15:30:53.684Z,8.17
2019-06-10T15:33:24.067Z,5.03
2019-06-10T15:35:54.101Z,8.23
2019-06-10T15:38:23.812Z,6.93
2019-06-10T15:40:53.621Z,9.47
2019-06-10T15:43:23.782Z,10.57
2019-06-10T15:45:53.731Z,7.70
2019-06-10T15:48:25.263Z,9.10
2019-06-10T15:50:54.991Z,7.53
2019-06-10T15:53:25.819Z,8.68
2019-06-10T15:56:12.962Z,10.40
2019-06-10T15:58:27.302Z,12.23
2019-06-10T16:00:57.158Z,8.70
2019-06-10T16:03:26.874Z,10.27
2019-06-10T16:05:56.655Z,9.50
2019-06-10T16:08:26.418Z,7.35
2019-06-10T16:10:56.180Z,9.00
2019-06-10T16:13:26.067Z,5.57
2019-06-10T16:15:55.891Z,7.95
2019-06-10T16:18:27.899Z,10.80
2019-06-10T16:20:57.050Z,6.83
2019-06-10T16:23:27.007Z,7.03
2019-06-10T16:25:57.766Z,10.63
2019-06-10T16:28:27.579Z,15.27
2019-06-10T16:30:57.351Z,6.67
2019-06-10T16:33:27.780Z,11.00
2019-06-10T16:35:57.895Z,9.07
2019-06-10T16:38:27.604Z,6.87
2019-06-10T16:40:57.407Z,8.23
2019-06-10T16:43:27.738Z,9.47
2019-06-10T16:45:57.726Z,7.57
2019-06-10T16:48:27.513Z,10.37
2019-06-10T16:50:57.330Z,6.87
2019-06-10T16:53:30.459Z,9.53
2019-06-10T16:55:58.500Z,14.40
2019-06-10T16:58:28.565Z,9.63
2019-06-10T17:00:58.317Z,11.80
2019-06-10T17:03:29.187Z,7.93
2019-06-10T17:05:59.536Z,7.40
2019-06-10T17:08:30.291Z,6.03
2019-06-10T17:11:03.068Z,20.80
2019-06-10T17:13:31.859Z,10.40
2019-06-10T17:16:03.421Z,11.60
2019-06-10T17:18:33.848Z,14.60
2019-06-10T17:21:04.826Z,9.13
2019-06-10T17:23:36.481Z,10.87
2019-06-10T17:26:06.164Z,11.80
2019-06-10T17:28:37.059Z,12.23
2019-06-10T17:31:07.040Z,10.63
2019-06-10T17:33:36.770Z,17.67
2019-06-10T17:36:06.606Z,7.83
2019-06-10T17:38:36.295Z,6.50
2019-06-10T17:41:06.164Z,3.50
2019-06-10T17:43:36.842Z,3.33
2019-06-10T17:46:06.548Z,1.30
2019-06-10T17:48:36.317Z,3.17
2019-06-10T17:51:07.716Z,2.13
2019-06-10T17:53:37.564Z,2.87
2019-06-10T17:56:07.403Z,3.00
2019-06-10T17:58:50.103Z,3.97
2019-06-10T18:01:08.628Z,3.37
2019-06-10T18:03:40.112Z,3.27
2019-06-10T18:06:10.051Z,5.17
2019-06-10T18:08:40.804Z,10.03
2019-06-10T18:11:12.783Z,7.40
2019-06-10T18:13:42.887Z,6.87
2019-06-10T18:16:13.865Z,6.23
2019-06-10T18:18:44.599Z,8.13
2019-06-10T18:21:14.287Z,11.30
2019-06-10T18:23:44.051Z,9.43
2019-06-10T18:26:13.826Z,11.13
2019-06-10T18:29:00.218Z,8.43
2019-06-10T18:31:18.360Z,8.83
2019-06-10T18:33:46.421Z,13.00
2019-06-10T18:36:16.322Z,10.07
2019-06-10T18:38:46.043Z,8.67
2019-06-10T18:41:15.823Z,14.97
2019-06-10T18:43:45.515Z,13.67
2019-06-10T18:46:15.291Z,17.27
2019-06-10T18:48:45.009Z,7.70
2019-06-10T18:51:14.779Z,10.50
2019-06-10T18:53:44.644Z,10.83
2019-06-10T18:56:15.959Z,9.90
2019-06-10T18:58:45.752Z,13.13
2019-06-10T19:01:15.652Z,10.07
2019-06-10T19:03:45.376Z,6.50
2019-06-10T19:06:15.171Z,10.00
2019-06-10T19:08:44.859Z,11.80
2019-06-10T19:11:14.651Z,11.90
2019-06-10T19:13:44.384Z,12.37
2019-06-10T19:16:14.090Z,9.73
2019-06-10T19:18:43.877Z,9.73
2019-06-10T19:21:15.424Z,9.10
2019-06-10T19:23:45.219Z,15.83
2019-06-10T19:26:14.995Z,10.60
2019-06-10T19:28:45.444Z,9.27
2019-06-10T19:31:15.345Z,9.00
2019-06-10T19:33:45.578Z,10.80
2019-06-10T19:36:15.444Z,10.60
2019-06-10T19:38:47.412Z,11.43
2019-06-10T19:41:17.231Z,8.87
2019-06-10T19:43:47.012Z,11.67
2019-06-10T19:46:16.717Z,10.20
2019-06-10T19:48:56.980Z,10.53
2019-06-10T19:51:19.779Z,8.63
2019-06-10T19:53:49.462Z,9.97
2019-06-10T19:56:19.365Z,15.27
2019-06-10T19:58:49.971Z,15.40
2019-06-10T20:01:22.574Z,12.13
2019-06-10T20:03:52.595Z,13.37
2019-06-10T20:06:22.315Z,13.67
2019-06-10T20:08:52.345Z,8.40
2019-06-10T20:11:22.860Z,8.40
2019-06-10T20:13:53.863Z,11.00
2019-06-10T20:16:23.562Z,10.87
2019-06-10T20:18:53.764Z,22.37
2019-06-10T20:21:23.558Z,10.50
2019-06-10T20:23:53.384Z,14.03
2019-06-10T20:26:23.228Z,8.80
2019-06-10T20:28:55.315Z,10.83
2019-06-10T20:31:24.577Z,10.33
2019-06-10T20:33:54.295Z,16.70
2019-06-10T20:36:27.186Z,13.70
2019-06-10T20:38:55.552Z,10.07
2019-06-10T20:41:25.277Z,14.80
2019-06-10T20:43:55.531Z,12.93
2019-06-10T20:46:25.510Z,9.97
2019-06-10T20:48:55.202Z,14.23
2019-06-10T20:51:27.201Z,11.93
2019-06-10T20:53:56.318Z,8.87
2019-06-10T20:56:26.053Z,14.37
2019-06-10T20:58:55.747Z,15.93
2019-06-10T21:01:25.819Z,13.17
2019-06-10T21:03:55.628Z,8.50
2019-06-10T21:06:26.891Z,16.43
2019-06-10T21:08:56.575Z,14.47
2019-06-10T21:11:26.325Z,10.73
2019-06-10T21:13:56.070Z,10.47
2019-06-10T21:16:25.949Z,13.67
2019-06-10T21:18:55.856Z,14.20
2019-06-10T21:21:25.800Z,11.63
2019-06-10T21:23:55.497Z,10.53
2019-06-10T21:26:25.301Z,11.10
2019-06-10T21:28:55.378Z,12.30
2019-06-10T21:31:25.163Z,9.20
2019-06-10T21:33:55.984Z,10.50
2019-06-10T21:36:25.939Z,12.13
2019-06-10T21:38:56.044Z,11.80
2019-06-10T21:41:25.994Z,11.13
2019-06-10T21:43:59.171Z,8.97
2019-06-10T21:46:27.119Z,20.93
2019-06-10T21:48:56.827Z,8.77
2019-06-10T21:51:26.846Z,11.00
2019-06-10T21:53:56.635Z,12.53
2019-06-10T21:56:26.411Z,11.77
2019-06-10T21:58:56.203Z,10.80
2019-06-10T22:01:26.129Z,14.43
2019-06-10T22:04:00.763Z,11.20
2019-06-10T22:06:27.419Z,9.87
2019-06-10T22:08:57.209Z,10.63
2019-06-10T22:11:26.909Z,11.27
2019-06-10T22:13:58.003Z,10.30
2019-06-10T22:16:27.749Z,11.60
2019-06-10T22:18:58.722Z,15.37
2019-06-10T22:21:28.519Z,12.03
2019-06-10T22:23:58.290Z,10.23
2019-06-10T22:26:27.982Z,9.27
2019-06-10T22:28:57.820Z,9.70
2019-06-10T22:31:27.675Z,11.03
2019-06-10T22:33:57.766Z,13.60
2019-06-10T22:36:27.548Z,11.33
2019-06-10T22:38:59.278Z,16.80
2019-06-10T22:41:29.786Z,12.17
2019-06-10T22:43:59.848Z,21.83
2019-06-10T22:46:31.976Z,15.80
2019-06-10T22:49:03.039Z,14.23
2019-06-10T22:51:33.062Z,9.57
2019-06-10T22:54:03.995Z,10.40
2019-06-10T22:56:33.814Z,11.83
2019-06-10T22:59:03.670Z,13.97
2019-06-10T23:01:37.822Z,12.57
2019-06-10T23:04:05.074Z,9.80
2019-06-10T23:06:34.854Z,11.37
2019-06-10T23:09:05.877Z,11.60
2019-06-10T23:11:35.670Z,14.93
2019-06-10T23:14:05.455Z,12.47
2019-06-10T23:16:35.247Z,10.27
2019-06-10T23:19:05.203Z,9.77
2019-06-10T23:21:35.052Z,8.93
2019-06-10T23:24:04.831Z,9.87
2019-06-10T23:26:34.634Z,11.87
2019-06-10T23:29:04.499Z,13.43
2019-06-10T23:31:48.733Z,8.00
2019-06-10T23:34:05.663Z,13.17
2019-06-10T23:36:35.387Z,27.03
2019-06-10T23:39:05.996Z,12.70
2019-06-10T23:41:35.694Z,11.17
2019-06-10T23:44:05.575Z,15.43
2019-06-10T23:46:35.363Z,10.63
2019-06-10T23:49:05.347Z,8.77
2019-06-10T23:51:35.128Z,11.27
2019-06-10T23:54:06.297Z,9.97
2019-06-10T23:56:36.284Z,11.33
2019-06-10T23:59:06.074Z,15.37
